createdAt,value
2022-08-20T00:00:49.065Z,25.18
2022-08-20T00:03:28.332Z,25.15
2022-08-20T00:05:58.604Z,25.10
2022-08-20T00:08:26.698Z,25.10
2022-08-20T00:10:55.786Z,25.13
2022-08-20T00:13:30.825Z,25.13
2022-08-20T00:15:58.184Z,25.13
2022-08-20T00:18:26.331Z,25.10
2022-08-20T00:20:54.637Z,25.04
2022-08-20T00:23:22.401Z,24.97
2022-08-20T00:25:49.753Z,24.97
2022-08-20T00:28:17.519Z,25.00
2022-08-20T00:30:45.693Z,24.98
2022-08-20T00:33:18.478Z,24.92
2022-08-20T00:35:52.105Z,24.83
2022-08-20T00:38:19.842Z,24.77
2022-08-20T00:40:58.359Z,24.78
2022-08-20T00:43:36.978Z,24.80
2022-08-20T00:46:15.189Z,24.78
2022-08-20T00:48:44.079Z,24.72
2022-08-20T00:51:26.489Z,24.65
2022-08-20T00:54:22.106Z,24.55
2022-08-20T00:57:03.677Z,24.54
2022-08-20T00:59:32.507Z,24.54
2022-08-20T01:02:00.787Z,24.52
2022-08-20T01:04:31.711Z,24.48
2022-08-20T01:06:58.958Z,24.45
2022-08-20T01:09:50.067Z,24.42
2022-08-20T01:12:14.833Z,24.43
2022-08-20T01:14:45.812Z,24.44
2022-08-20T01:17:20.471Z,24.42
2022-08-20T01:20:00.587Z,24.38
2022-08-20T01:23:04.207Z,24.32
2022-08-20T01:25:41.581Z,24.25
2022-08-20T01:28:10.270Z,24.26
2022-08-20T01:30:37.628Z,24.27
2022-08-20T01:33:05.696Z,24.26
2022-08-20T01:35:38.132Z,24.25
2022-08-20T01:38:05.839Z,24.25
2022-08-20T01:40:54.078Z,24.25
2022-08-20T01:43:21.648Z,24.30
2022-08-20T01:45:53.148Z,24.35
2022-08-20T01:48:21.163Z,24.33
2022-08-20T01:51:08.017Z,24.30
2022-08-20T01:53:41.762Z,24.25
2022-08-20T01:56:10.671Z,24.20
2022-08-20T01:58:40.388Z,24.23
2022-08-20T02:01:07.893Z,24.24
2022-08-20T02:03:42.915Z,24.18
2022-08-20T02:06:11.972Z,24.13
2022-08-20T02:08:39.326Z,24.08
2022-08-20T02:11:08.324Z,24.05
2022-08-20T02:13:35.572Z,24.09
2022-08-20T02:16:03.439Z,24.13
2022-08-20T02:18:30.801Z,24.12
2022-08-20T02:20:58.253Z,24.08
2022-08-20T02:23:25.611Z,24.04
2022-08-20T02:25:52.963Z,24.00
2022-08-20T02:28:21.039Z,24.02
2022-08-20T02:30:50.909Z,24.05
2022-08-20T02:33:19.156Z,24.04
2022-08-20T02:35:47.922Z,24.00
2022-08-20T02:38:16.191Z,23.93
2022-08-20T02:40:44.874Z,23.85
2022-08-20T02:43:12.950Z,23.86
2022-08-20T02:45:44.301Z,23.88
2022-08-20T02:48:21.340Z,23.88
2022-08-20T02:50:50.935Z,23.85
2022-08-20T02:53:18.553Z,23.83
2022-08-20T02:55:45.909Z,23.78
2022-08-20T02:58:13.266Z,23.80
2022-08-20T03:00:40.927Z,23.83
2022-08-20T03:03:09.250Z,23.84
2022-08-20T03:05:39.995Z,23.81
2022-08-20T03:08:08.725Z,23.76
2022-08-20T03:10:36.797Z,23.74
2022-08-20T03:13:05.106Z,23.75
2022-08-20T03:15:33.358Z,23.78
2022-08-20T03:18:01.467Z,23.74
2022-08-20T03:20:29.396Z,23.69
2022-08-20T03:22:56.648Z,23.65
2022-08-20T03:25:24.004Z,23.68
2022-08-20T03:27:55.003Z,23.73
2022-08-20T03:30:22.980Z,23.74
2022-08-20T03:32:50.573Z,23.69
2022-08-20T03:35:18.681Z,23.67
2022-08-20T03:37:48.926Z,23.64
2022-08-20T03:40:19.459Z,23.65
2022-08-20T03:42:46.657Z,23.71
2022-08-20T03:45:18.395Z,23.71
2022-08-20T03:47:47.920Z,23.68
2022-08-20T03:50:22.896Z,23.65
2022-08-20T03:52:52.515Z,23.65
2022-08-20T03:55:20.018Z,23.70
2022-08-20T03:57:50.100Z,23.76
2022-08-20T04:00:27.752Z,23.77
2022-08-20T04:02:57.550Z,23.75
2022-08-20T04:05:25.720Z,23.71
2022-08-20T04:07:56.993Z,23.76
2022-08-20T04:10:31.041Z,23.83
2022-08-20T04:12:58.540Z,23.84
2022-08-20T04:15:27.123Z,23.84
2022-08-20T04:17:54.779Z,23.84
2022-08-20T04:20:24.079Z,23.85
2022-08-20T04:22:59.185Z,23.90
2022-08-20T04:25:29.628Z,23.94
2022-08-20T04:28:00.857Z,23.96
2022-08-20T04:30:28.877Z,23.94
2022-08-20T04:32:56.540Z,23.93
2022-08-20T04:35:27.579Z,23.93
2022-08-20T04:38:01.969Z,23.99
2022-08-20T04:40:47.990Z,24.06
2022-08-20T04:43:15.346Z,24.10
2022-08-20T04:45:43.109Z,24.08
2022-08-20T04:48:14.788Z,24.02
2022-08-20T04:50:45.192Z,23.97
2022-08-20T04:53:14.352Z,24.00
2022-08-20T04:55:46.354Z,24.07
2022-08-20T04:58:18.389Z,24.09
2022-08-20T05:00:49.994Z,24.06
2022-08-20T05:03:17.739Z,24.02
2022-08-20T05:05:45.665Z,23.99
2022-08-20T05:08:19.971Z,24.00
2022-08-20T05:10:47.793Z,24.07
2022-08-20T05:13:15.248Z,24.08
2022-08-20T05:15:42.911Z,24.07
2022-08-20T05:18:10.474Z,24.05
2022-08-20T05:20:40.452Z,24.03
2022-08-20T05:23:10.417Z,24.06
2022-08-20T05:25:38.641Z,24.13
2022-08-20T05:28:09.806Z,24.18
2022-08-20T05:30:38.001Z,24.22
2022-08-20T05:33:06.177Z,24.27
2022-08-20T05:35:36.066Z,24.36
2022-08-20T05:38:03.958Z,24.51
2022-08-20T05:40:32.645Z,24.64
2022-08-20T05:43:00.000Z,24.73
2022-08-20T05:45:27.358Z,24.75
2022-08-20T05:47:56.602Z,24.75
2022-08-20T05:50:24.228Z,24.77
2022-08-20T05:52:51.777Z,24.80
2022-08-20T05:55:19.336Z,24.90
2022-08-20T05:57:47.001Z,25.00
2022-08-20T06:00:15.183Z,25.03
2022-08-20T06:03:01.268Z,25.02
2022-08-20T06:05:29.037Z,25.02
2022-08-20T06:07:59.453Z,25.02
2022-08-20T06:10:36.447Z,25.03
2022-08-20T06:13:05.847Z,25.07
2022-08-20T06:15:33.611Z,25.18
2022-08-20T06:18:10.004Z,25.28
2022-08-20T06:20:53.118Z,25.36
2022-08-20T06:23:21.175Z,25.38
2022-08-20T06:25:50.783Z,25.37
2022-08-20T06:28:19.062Z,25.40
2022-08-20T06:30:46.416Z,25.40
2022-08-20T06:33:14.079Z,25.38
2022-08-20T06:35:41.741Z,25.43
2022-08-20T06:38:13.297Z,25.54
2022-08-20T06:40:40.957Z,25.58
2022-08-20T06:43:10.155Z,25.52
2022-08-20T06:45:39.105Z,25.47
2022-08-20T06:48:09.022Z,25.44
2022-08-20T06:50:47.461Z,25.42
2022-08-20T06:53:18.321Z,25.42
2022-08-20T06:55:53.867Z,25.47
2022-08-20T06:58:37.342Z,25.58
2022-08-20T07:01:09.592Z,25.67
2022-08-20T07:03:38.939Z,25.70
2022-08-20T07:06:06.855Z,25.72
2022-08-20T07:08:34.605Z,25.73
2022-08-20T07:11:02.266Z,25.75
2022-08-20T07:13:29.620Z,25.74
2022-08-20T07:15:57.186Z,25.73
2022-08-20T07:18:28.064Z,25.74
2022-08-20T07:20:57.719Z,25.77
2022-08-20T07:23:28.376Z,25.82
2022-08-20T07:25:58.846Z,25.86
2022-08-20T07:28:29.010Z,25.88
2022-08-20T07:31:15.989Z,25.90
2022-08-20T07:33:44.786Z,25.92
2022-08-20T07:36:12.585Z,25.94
2022-08-20T07:38:40.040Z,26.01
2022-08-20T07:41:10.570Z,26.12
2022-08-20T07:43:39.870Z,26.18
2022-08-20T07:46:09.262Z,26.18
2022-08-20T07:48:40.256Z,26.17
2022-08-20T07:51:08.382Z,26.24
2022-08-20T07:53:37.182Z,26.32
2022-08-20T07:56:06.296Z,26.42
2022-08-20T07:58:35.949Z,26.49
2022-08-20T08:01:03.774Z,26.53
2022-08-20T08:03:40.696Z,26.57
2022-08-20T08:06:28.514Z,26.59
2022-08-20T08:09:06.271Z,26.63
2022-08-20T08:11:35.256Z,26.74
2022-08-20T08:14:03.330Z,26.83
2022-08-20T08:16:32.767Z,26.92
2022-08-20T08:19:02.337Z,26.98
2022-08-20T08:21:33.959Z,27.01
2022-08-20T08:24:02.994Z,27.00
2022-08-20T08:26:30.773Z,27.03
2022-08-20T08:29:01.085Z,27.06
2022-08-20T08:31:28.641Z,27.09
2022-08-20T08:33:55.997Z,27.13
2022-08-20T08:36:23.556Z,27.17
2022-08-20T08:38:51.344Z,27.19
2022-08-20T08:41:29.495Z,27.23
2022-08-20T08:44:06.320Z,27.26
2022-08-20T08:46:36.528Z,27.30
2022-08-20T08:50:05.959Z,27.39
2022-08-20T08:52:35.040Z,27.44
2022-08-20T08:55:05.482Z,27.47
2022-08-20T08:57:33.132Z,27.48
2022-08-20T09:00:10.486Z,27.50
2022-08-20T09:02:39.199Z,27.51
2022-08-20T09:05:15.476Z,27.50
2022-08-20T09:07:42.824Z,27.52
2022-08-20T09:10:10.589Z,27.56
2022-08-20T09:12:38.561Z,27.61
2022-08-20T09:15:06.734Z,27.68
2022-08-20T09:17:34.501Z,27.72
2022-08-20T09:20:02.065Z,27.77
2022-08-20T09:22:29.526Z,27.81
2022-08-20T09:24:57.284Z,27.83
2022-08-20T09:27:24.639Z,27.83
2022-08-20T09:29:53.938Z,27.85
2022-08-20T09:32:23.310Z,27.88
2022-08-20T09:34:56.109Z,27.92
2022-08-20T09:37:24.921Z,27.95
2022-08-20T09:39:52.641Z,27.95
2022-08-20T09:42:22.906Z,27.97
2022-08-20T09:44:50.465Z,28.02
2022-08-20T09:47:17.918Z,28.09
2022-08-20T09:49:46.502Z,28.17
2022-08-20T09:52:25.286Z,28.20
2022-08-20T09:54:53.297Z,28.24
2022-08-20T09:57:22.395Z,28.28
2022-08-20T09:59:54.329Z,28.36
2022-08-20T10:02:21.715Z,28.45
2022-08-20T10:04:49.074Z,28.50
2022-08-20T10:07:18.983Z,28.48
2022-08-20T10:09:46.649Z,28.45
2022-08-20T10:12:14.110Z,28.46
2022-08-20T10:14:41.562Z,28.47
2022-08-20T10:17:08.918Z,28.47
2022-08-20T10:19:36.476Z,28.48
2022-08-20T10:22:03.934Z,28.51
2022-08-20T10:24:31.904Z,28.58
2022-08-20T10:26:59.977Z,28.66
2022-08-20T10:29:27.709Z,28.72
2022-08-20T10:31:56.122Z,28.73
2022-08-20T10:34:26.658Z,28.77
2022-08-20T10:36:54.074Z,28.81
2022-08-20T10:39:21.771Z,28.84
2022-08-20T10:41:49.136Z,28.86
2022-08-20T10:44:18.018Z,28.89
2022-08-20T10:46:46.153Z,28.94
2022-08-20T10:49:13.446Z,29.02
2022-08-20T10:51:41.007Z,29.07
2022-08-20T10:54:12.300Z,29.11
2022-08-20T10:56:40.529Z,29.18
2022-08-20T10:59:07.752Z,29.24
2022-08-20T11:01:36.974Z,29.29
2022-08-20T11:04:05.258Z,29.33
2022-08-20T11:06:33.126Z,29.32
2022-08-20T11:09:00.687Z,29.28
2022-08-20T11:11:28.561Z,29.28
2022-08-20T11:13:56.445Z,29.28
2022-08-20T11:16:23.980Z,29.28
2022-08-20T11:18:51.337Z,29.28
2022-08-20T11:21:18.793Z,29.29
2022-08-20T11:23:46.251Z,29.34
2022-08-20T11:26:18.389Z,29.34
2022-08-20T11:28:45.674Z,29.30
2022-08-20T11:31:13.130Z,29.26
2022-08-20T11:33:40.486Z,29.26
2022-08-20T11:36:08.415Z,29.30
2022-08-20T11:38:35.813Z,29.35
2022-08-20T11:41:04.293Z,29.40
2022-08-20T11:43:31.649Z,29.42
2022-08-20T12:30:46.934Z,28.78
2022-08-20T12:33:14.557Z,28.78
2022-08-20T12:35:41.850Z,28.83
2022-08-20T12:38:09.206Z,28.89
2022-08-20T12:40:38.713Z,28.99
2022-08-20T12:43:06.274Z,29.11
2022-08-20T12:45:35.881Z,29.22
2022-08-20T12:48:13.170Z,29.32
2022-08-20T12:50:43.165Z,29.44
2022-08-20T12:53:10.714Z,29.56
2022-08-20T12:55:38.818Z,29.67
2022-08-20T12:58:08.426Z,29.76
2022-08-20T13:00:43.151Z,29.83
2022-08-20T13:03:11.636Z,29.89
2022-08-20T13:05:40.225Z,29.96
2022-08-20T13:08:09.107Z,29.99
2022-08-20T13:10:42.715Z,29.99
2022-08-20T13:13:11.776Z,29.99
2022-08-20T13:15:40.292Z,30.01
2022-08-20T13:18:08.057Z,30.02
2022-08-20T13:20:36.027Z,30.04
2022-08-20T13:23:04.676Z,30.04
2022-08-20T13:25:32.684Z,30.05
2022-08-20T13:28:02.562Z,30.06
2022-08-20T13:30:30.056Z,30.06
2022-08-20T13:32:57.680Z,30.06
2022-08-20T13:35:25.381Z,30.07
2022-08-20T13:37:52.738Z,30.08
2022-08-20T13:40:20.655Z,30.09
2022-08-20T13:42:48.372Z,30.12
2022-08-20T13:45:15.729Z,30.19
2022-08-20T13:47:43.594Z,30.27
2022-08-20T13:50:18.730Z,30.34
2022-08-20T13:52:46.393Z,30.41
2022-08-20T13:55:16.351Z,30.45
2022-08-20T13:57:43.870Z,30.47
2022-08-20T14:00:17.721Z,30.48
2022-08-20T14:02:45.543Z,30.48
2022-08-20T14:05:14.286Z,30.48
2022-08-20T14:07:46.501Z,30.49
2022-08-20T14:10:16.895Z,30.50
2022-08-20T14:12:44.389Z,30.52
2022-08-20T14:15:12.253Z,30.53
2022-08-20T14:17:42.033Z,30.52
2022-08-20T14:20:12.003Z,30.51
2022-08-20T14:22:40.365Z,30.49
2022-08-20T14:25:08.697Z,30.46
2022-08-20T14:27:36.484Z,30.46
2022-08-20T14:30:06.697Z,30.45
2022-08-20T14:32:34.595Z,30.43
2022-08-20T14:35:02.674Z,30.41
2022-08-20T14:37:33.052Z,30.40
2022-08-20T14:40:02.375Z,30.42
2022-08-20T14:42:30.235Z,30.42
2022-08-20T14:44:58.045Z,30.42
2022-08-20T14:47:28.047Z,30.43
2022-08-20T14:50:02.691Z,30.43
2022-08-20T14:52:33.309Z,30.42
2022-08-20T14:55:00.767Z,30.43
2022-08-20T14:57:28.117Z,30.43
2022-08-20T14:59:55.988Z,30.43
2022-08-20T15:02:23.340Z,30.42
2022-08-20T15:04:54.389Z,30.42
2022-08-20T15:07:26.056Z,30.41
2022-08-20T15:09:53.906Z,30.41
2022-08-20T15:12:22.557Z,30.40
2022-08-20T15:14:50.058Z,30.37
2022-08-20T15:17:29.492Z,30.34
2022-08-20T15:19:57.973Z,30.30
2022-08-20T15:22:25.428Z,30.27
2022-08-20T15:24:52.743Z,30.23
2022-08-20T15:27:25.568Z,30.20
2022-08-20T15:29:53.155Z,30.17
2022-08-20T15:32:20.746Z,30.13
2022-08-20T15:34:48.624Z,30.10
2022-08-20T15:37:25.803Z,30.07
2022-08-20T15:39:53.583Z,30.03
2022-08-20T15:42:21.886Z,29.97
2022-08-20T15:44:49.343Z,29.88
2022-08-20T15:47:21.159Z,29.81
2022-08-20T15:50:14.046Z,29.74
2022-08-20T15:52:43.001Z,29.66
2022-08-20T15:55:12.151Z,29.58
2022-08-20T15:58:01.211Z,29.48
2022-08-20T16:00:55.681Z,29.39
2022-08-20T16:03:58.492Z,29.30
2022-08-20T16:06:26.522Z,29.20
2022-08-20T16:09:09.482Z,29.12
2022-08-20T16:11:55.669Z,29.03
2022-08-20T16:14:31.312Z,28.91
2022-08-20T16:17:03.598Z,28.82
2022-08-20T16:19:45.394Z,28.74
2022-08-20T16:22:14.287Z,28.64
2022-08-20T16:24:41.537Z,28.56
2022-08-20T16:28:14.048Z,28.47
2022-08-20T16:30:43.651Z,28.44
2022-08-20T16:33:20.203Z,28.44
2022-08-20T16:35:52.471Z,28.41
2022-08-20T16:38:33.140Z,28.37
2022-08-20T16:41:14.730Z,28.30
2022-08-20T16:44:15.566Z,28.21
2022-08-20T16:46:47.910Z,28.11
2022-08-20T16:49:15.195Z,28.02
2022-08-20T16:51:52.029Z,27.93
2022-08-20T16:54:28.349Z,27.92
2022-08-20T16:57:02.954Z,27.91
2022-08-20T16:59:30.420Z,27.87
2022-08-20T17:02:07.100Z,27.80
2022-08-20T17:04:59.486Z,27.74
2022-08-20T17:07:43.197Z,27.65
2022-08-20T17:10:18.117Z,27.59
2022-08-20T17:12:45.770Z,27.54
2022-08-20T17:15:25.823Z,27.49
2022-08-20T17:17:56.251Z,27.45
2022-08-20T17:20:25.659Z,27.41
2022-08-20T17:23:18.712Z,27.41
2022-08-20T17:25:55.490Z,27.44
2022-08-20T17:28:23.562Z,27.41
2022-08-20T17:30:51.132Z,27.38
2022-08-20T17:33:22.783Z,27.38
2022-08-20T17:36:08.978Z,27.39
2022-08-20T17:38:54.058Z,27.40
2022-08-20T17:41:27.139Z,27.39
2022-08-20T17:43:59.629Z,27.35
2022-08-20T17:46:28.411Z,27.31
2022-08-20T17:48:56.577Z,27.28
2022-08-20T17:51:27.515Z,27.27
2022-08-20T17:54:10.911Z,27.27
2022-08-20T17:56:39.725Z,27.27
2022-08-20T17:59:10.616Z,27.28
2022-08-20T18:01:38.844Z,27.28
2022-08-20T18:04:06.307Z,27.28
2022-08-20T18:06:38.169Z,27.28
2022-08-20T18:09:21.601Z,27.29
2022-08-20T18:12:34.277Z,27.31
2022-08-20T18:15:23.627Z,27.34
2022-08-20T18:18:13.166Z,27.35
2022-08-20T18:20:49.840Z,27.38
2022-08-20T18:23:48.030Z,27.38
2022-08-20T18:26:26.739Z,27.39
2022-08-20T18:29:08.431Z,27.38
2022-08-20T18:31:53.809Z,27.38
2022-08-20T18:34:29.776Z,27.37
2022-08-20T18:37:01.854Z,27.38
2022-08-20T18:39:31.134Z,27.36
2022-08-20T18:42:21.531Z,27.35
2022-08-20T18:44:51.134Z,27.34
2022-08-20T18:47:24.639Z,27.33
2022-08-20T18:50:16.736Z,27.32
2022-08-20T18:52:51.848Z,27.31
2022-08-20T18:55:32.697Z,27.31
2022-08-20T18:58:08.304Z,27.30
2022-08-20T19:00:48.534Z,27.29
2022-08-20T19:03:24.252Z,27.27
2022-08-20T19:05:59.935Z,27.26
2022-08-20T19:08:36.256Z,27.26
2022-08-20T19:11:34.440Z,27.26
2022-08-20T19:14:20.837Z,27.25
2022-08-20T19:16:51.364Z,27.23
2022-08-20T19:19:26.759Z,27.22
2022-08-20T19:21:57.443Z,27.22
2022-08-20T19:24:27.672Z,27.22
2022-08-20T19:27:00.525Z,27.22
2022-08-20T19:29:32.567Z,27.21
2022-08-20T19:32:01.456Z,27.21
2022-08-20T19:34:29.380Z,27.21
2022-08-20T19:37:31.592Z,27.20
2022-08-20T19:40:00.405Z,27.19
2022-08-20T19:42:30.250Z,27.18
2022-08-20T19:45:04.011Z,27.16
2022-08-20T19:47:37.048Z,27.14
2022-08-20T19:50:35.227Z,27.13
2022-08-20T19:53:02.685Z,27.12
2022-08-20T19:55:36.166Z,27.11
2022-08-20T19:58:06.614Z,27.10
2022-08-20T20:00:43.796Z,27.09
2022-08-20T20:03:12.996Z,27.12
2022-08-20T20:05:51.513Z,27.18
2022-08-20T20:08:19.891Z,27.21
2022-08-20T20:10:53.291Z,27.21
2022-08-20T20:13:21.739Z,27.19
2022-08-20T20:15:56.365Z,27.18
2022-08-20T20:18:26.483Z,27.14
2022-08-20T20:20:58.301Z,27.07
2022-08-20T20:23:41.713Z,26.99
2022-08-20T20:26:16.905Z,26.93
2022-08-20T20:28:52.008Z,26.89
2022-08-20T20:31:29.317Z,26.85
2022-08-20T20:34:01.954Z,26.79
2022-08-20T20:36:31.972Z,26.71
2022-08-20T20:39:02.553Z,26.70
2022-08-20T20:41:29.956Z,26.70
2022-08-20T20:44:22.400Z,26.65
2022-08-20T20:46:50.270Z,26.57
2022-08-20T20:49:31.039Z,26.51
2022-08-20T20:52:14.893Z,26.43
2022-08-20T20:54:45.370Z,26.35
2022-08-20T20:57:15.733Z,26.30
2022-08-20T20:59:43.765Z,26.31
2022-08-20T21:02:11.086Z,26.32
2022-08-20T21:04:42.491Z,26.29
2022-08-20T21:07:13.245Z,26.25
2022-08-20T21:09:41.624Z,26.21
2022-08-20T21:12:10.212Z,26.16
2022-08-20T21:14:37.469Z,26.11
2022-08-20T21:17:06.254Z,26.07
2022-08-20T21:19:34.226Z,26.07
2022-08-20T21:22:11.210Z,26.09
2022-08-20T21:24:38.661Z,26.05
2022-08-20T21:27:06.325Z,25.98
2022-08-20T21:29:35.133Z,25.91
2022-08-20T21:32:02.879Z,25.81
2022-08-20T21:34:30.336Z,25.74
2022-08-20T21:36:57.692Z,25.75
2022-08-20T21:39:26.803Z,25.79
2022-08-20T21:41:55.474Z,25.76
2022-08-20T21:44:26.398Z,25.70
2022-08-20T21:46:54.338Z,25.65
2022-08-20T21:49:22.830Z,25.60
2022-08-20T21:51:50.730Z,25.56
2022-08-20T21:54:18.293Z,25.56
2022-08-20T21:56:57.219Z,25.57
2022-08-20T21:59:24.779Z,25.56
2022-08-20T22:01:52.337Z,25.55
2022-08-20T22:04:20.002Z,25.55
2022-08-20T22:06:48.380Z,25.56
2022-08-20T22:09:15.735Z,25.56
2022-08-20T22:11:43.193Z,25.54
2022-08-20T22:14:11.064Z,25.51
2022-08-20T22:16:38.442Z,25.47
2022-08-20T22:19:15.367Z,25.42
2022-08-20T22:21:43.571Z,25.39
2022-08-20T22:24:11.234Z,25.40
2022-08-20T22:26:39.908Z,25.42
2022-08-20T22:29:07.903Z,25.40
2022-08-20T22:31:36.885Z,25.38
2022-08-20T22:34:04.445Z,25.36
2022-08-20T22:36:32.826Z,25.33
2022-08-20T22:39:00.308Z,25.37
2022-08-20T22:41:28.425Z,25.42
2022-08-20T22:43:56.595Z,25.43
2022-08-20T22:46:26.798Z,25.41
2022-08-20T22:48:54.861Z,25.38
2022-08-20T22:51:25.101Z,25.34
2022-08-20T22:53:52.509Z,25.33
2022-08-20T22:56:22.830Z,25.35
2022-08-20T22:58:50.514Z,25.34
2022-08-20T23:01:19.085Z,25.30
2022-08-20T23:03:46.335Z,25.25
2022-08-20T23:06:13.787Z,25.25
2022-08-20T23:08:42.474Z,25.29
2022-08-20T23:11:10.239Z,25.28
2022-08-20T23:13:37.902Z,25.24
2022-08-20T23:16:05.566Z,25.20
2022-08-20T23:18:33.637Z,25.15
2022-08-20T23:21:02.323Z,25.14
2022-08-20T23:23:29.780Z,25.15
2022-08-20T23:25:57.647Z,25.15
2022-08-20T23:28:25.618Z,25.13
2022-08-20T23:30:53.080Z,25.10
2022-08-20T23:33:22.071Z,25.12
2022-08-20T23:35:49.628Z,25.13
2022-08-20T23:38:17.089Z,25.11
2022-08-20T23:40:44.649Z,25.09
2022-08-20T23:43:11.904Z,25.08
2022-08-20T23:45:40.159Z,25.08
2022-08-20T23:48:08.255Z,25.13
2022-08-20T23:50:35.914Z,25.17
2022-08-20T23:53:03.781Z,25.16
2022-08-20T23:55:31.441Z,25.14
2022-08-20T23:57:58.899Z,25.09
